Time;durP1;ratioP1;P1;durP2;ratioP2;P2;SDS_P1;SDS_P2;PMS_P1;PMS_P2;Temp;Humidity;BMP_temperature;BMP_pressure;BME280_temperature;BME280_humidity;BME280_pressure;Samples;Min_cycle;Max_cycle;Signal;HPM_P1;HPM_P2
2023/04/19 00:09:01;;;;;;;15.47;12.03;;;;;;;9.05;53.33;101557.38;20876208;28;20277;-82
2023/04/19 00:19:04;;;;;;;14.70;11.67;;;;;;;9.01;53.74;101553.50;20912580;28;20251;-83
2023/04/19 00:29:06;;;;;;;13.40;11.60;;;;;;;8.75;53.82;101550.19;20911975;28;20210;-82
2023/04/19 00:39:08;;;;;;;15.68;11.32;;;;;;;8.55;54.88;101556.00;20910930;28;20227;-83
2023/04/19 00:49:12;;;;;;;12.53;10.03;;;;;;;8.87;54.15;101551.72;20904494;28;20289;-83
2023/04/19 00:59:15;;;;;;;14.65;11.38;;;;;;;9.08;52.69;101550.28;20909425;28;20275;-83
2023/04/19 01:09:17;;;;;;;15.02;11.50;;;;;;;9.49;51.74;101548.56;20938370;28;20245;-83
2023/04/19 01:19:20;;;;;;;12.37;9.77;;;;;;;9.41;51.14;101540.81;20991286;28;20268;-83
2023/04/19 01:29:22;;;;;;;11.03;9.37;;;;;;;9.83;49.65;101541.81;20972581;28;20257;-82
2023/04/19 01:39:26;;;;;;;9.07;8.17;;;;;;;9.33;49.69;101535.84;20913628;28;20314;-84
2023/04/19 01:49:29;;;;;;;8.00;6.80;;;;;;;9.75;47.39;101529.28;20904524;28;20581;-83
2023/04/19 01:59:32;;;;;;;8.13;7.03;;;;;;;8.94;49.23;101538.94;20891541;28;20266;-82
2023/04/19 02:09:36;;;;;;;8.10;6.37;;;;;;;9.18;47.86;101536.06;20840259;28;20216;-83
2023/04/19 02:19:38;;;;;;;6.43;5.37;;;;;;;9.39;47.27;101531.81;20815003;28;20628;-83
2023/04/19 02:29:40;;;;;;;5.40;4.60;;;;;;;9.08;46.72;101542.69;20793610;28;20242;-83
2023/04/19 02:39:44;;;;;;;4.63;3.70;;;;;;;9.23;45.92;101538.81;20811271;28;20557;-82
2023/04/19 02:49:46;;;;;;;6.33;4.63;;;;;;;9.23;45.68;101527.53;20789659;28;20246;-84
2023/04/19 02:59:49;;;;;;;6.47;4.10;;;;;;;9.08;45.57;101536.22;20792823;28;20228;-83
2023/04/19 03:09:52;;;;;;;4.27;3.67;;;;;;;9.26;44.86;101526.94;20780754;28;20228;-83
2023/04/19 03:19:55;;;;;;;4.63;3.83;;;;;;;8.66;46.00;101532.25;20810167;28;20221;-84
2023/04/19 03:29:58;;;;;;;4.43;3.80;;;;;;;8.91;44.01;101525.47;20814709;28;20231;-81
2023/04/19 03:40:02;;;;;;;5.45;3.30;;;;;;;8.84;42.66;101516.53;20844416;28;20282;-81
2023/04/19 03:50:08;;;;;;;3.83;3.13;;;;;;;8.68;42.36;101515.06;20818378;28;20196;-81
2023/04/19 04:00:13;;;;;;;4.90;3.30;;;;;;;8.13;43.00;101508.94;20842102;28;20221;-83
2023/04/19 04:10:15;;;;;;;4.13;3.40;;;;;;;7.93;42.60;101526.84;20820544;28;20224;-81
2023/04/19 04:20:18;;;;;;;4.20;3.77;;;;;;;8.02;42.31;101525.06;20874224;28;20219;-81
2023/04/19 04:30:21;;;;;;;4.87;3.00;;;;;;;7.80;42.30;101524.72;20908152;28;20258;-81
2023/04/19 04:40:24;;;;;;;5.13;3.77;;;;;;;7.40;42.75;101539.88;20899890;28;20224;-82
2023/04/19 04:50:27;;;;;;;4.40;4.00;;;;;;;7.83;42.70;101532.56;20883634;28;20196;-82
2023/04/19 05:00:31;;;;;;;5.63;4.53;;;;;;;7.54;43.15;101528.84;20889579;28;20219;-81
2023/04/19 05:10:38;;;;;;;4.50;4.10;;;;;;;7.51;42.70;101530.25;20868111;28;20220;-82
2023/04/19 05:20:41;;;;;;;6.13;5.17;;;;;;;8.10;41.13;101538.50;20841330;28;20223;-84
2023/04/19 05:30:51;;;;;;;7.03;4.70;;;;;;;8.19;41.10;101540.66;20882130;28;20196;-83
2023/04/19 05:40:56;;;;;;;6.67;4.30;;;;;;;7.83;41.41;101534.53;20896383;28;20258;-82
2023/04/19 05:50:58;;;;;;;5.47;4.00;;;;;;;7.63;42.12;101538.34;20881480;28;20687;-82
2023/04/19 06:01:36;;;;;;;5.13;3.47;;;;;;;7.29;39.20;101533.50;20872325;28;20198;-80
2023/04/19 06:11:40;;;;;;;5.20;3.40;;;;;;;6.88;36.58;101548.91;20790490;28;20224;-81
2023/04/19 06:21:52;;;;;;;3.67;3.17;;;;;;;7.08;35.62;101544.03;20797064;28;20219;-81
2023/04/19 06:31:54;;;;;;;2.67;2.43;;;;;;;6.77;35.98;101558.50;20776920;28;20263;-81
2023/04/19 06:41:56;;;;;;;5.60;2.93;;;;;;;6.93;34.72;101557.31;20787357;28;20239;-82
2023/04/19 06:51:58;;;;;;;5.43;2.50;;;;;;;7.16;35.19;101555.78;20777315;28;20208;-83
2023/04/19 07:02:01;;;;;;;4.38;2.60;;;;;;;7.60;35.02;101544.53;20787874;28;20192;-81
2023/04/19 07:12:03;;;;;;;3.00;2.40;;;;;;;7.64;33.77;101546.47;20834533;28;20220;-82
2023/04/19 07:22:05;;;;;;;4.10;2.40;;;;;;;7.60;33.75;101544.53;20809922;28;20220;-80
2023/04/19 07:32:07;;;;;;;5.10;2.10;;;;;;;7.87;32.74;101538.44;20816973;28;20205;-82
2023/04/19 07:42:09;;;;;;;1.87;1.50;;;;;;;8.27;32.74;101537.16;20806767;28;20193;-80
2023/04/19 07:52:11;;;;;;;4.73;2.10;;;;;;;7.35;33.76;101537.97;20802107;28;20208;-81
2023/04/19 08:02:15;;;;;;;3.80;2.05;;;;;;;8.06;33.07;101528.13;20809844;28;20278;-81
2023/04/19 08:12:18;;;;;;;3.03;1.53;;;;;;;8.29;32.38;101527.31;20812641;28;20224;-81
2023/04/19 08:22:38;;;;;;;3.15;1.80;;;;;;;8.27;31.75;101545.63;20832910;28;20209;-82
2023/04/19 08:32:40;;;;;;;1.40;1.30;;;;;;;8.37;30.65;101537.09;20842186;28;20262;-82
2023/04/19 08:42:43;;;;;;;4.03;1.27;;;;;;;8.05;30.99;101530.09;20820574;28;20597;-81
2023/04/19 08:52:45;;;;;;;3.00;1.13;;;;;;;8.84;30.04;101534.28;20812869;28;20274;-81
2023/04/19 09:02:58;;;;;;;2.50;1.23;;;;;;;8.30;30.25;101530.97;20818482;28;20246;-83
2023/04/19 09:13:03;;;;;;;4.47;0.90;;;;;;;8.82;29.09;101519.66;20783886;28;20256;-82
2023/04/19 09:23:07;;;;;;;2.77;1.30;;;;;;;8.41;29.96;101515.63;20782753;28;20213;-80
2023/04/19 09:33:09;;;;;;;2.97;1.00;;;;;;;8.54;28.20;101517.72;20754731;28;20220;-83
2023/04/19 09:43:11;;;;;;;2.43;1.37;;;;;;;9.12;28.98;101493.06;20810145;28;20193;-82
2023/04/19 09:53:35;;;;;;;2.13;1.50;;;;;;;9.27;29.88;101475.06;20798992;28;20266;-83
2023/04/19 10:03:37;;;;;;;2.53;1.40;;;;;;;9.28;28.59;101468.31;20830034;28;20192;-80
2023/04/19 10:13:40;;;;;;;2.73;1.40;;;;;;;9.39;28.10;101458.53;20929500;28;20236;-83
2023/04/19 10:23:42;;;;;;;2.57;1.67;;;;;;;10.34;27.16;101444.97;20907756;28;20215;-82
2023/04/19 10:33:45;;;;;;;3.20;0.93;;;;;;;10.00;26.84;101434.06;20882818;28;20216;-82
2023/04/19 10:43:59;;;;;;;3.03;1.30;;;;;;;9.22;27.15;101441.34;20810222;28;20233;-81
2023/04/19 10:54:02;;;;;;;1.47;1.37;;;;;;;10.50;25.97;101427.41;20752322;28;20221;-82
2023/04/19 11:04:05;;;;;;;3.30;1.20;;;;;;;10.72;26.34;101411.69;20703090;28;20499;-82
2023/04/19 11:14:09;;;;;;;4.27;1.50;;;;;;;10.74;24.35;101387.59;20722021;28;20229;-81
2023/04/19 11:24:12;;;;;;;3.30;1.47;;;;;;;10.60;24.71;101386.81;20732971;28;20615;-82
2023/04/19 11:34:14;;;;;;;3.88;1.55;;;;;;;10.70;25.84;101369.66;20719539;28;20279;-82
2023/04/19 11:44:21;;;;;;;2.47;1.88;;;;;;;11.10;25.87;101350.88;20701931;28;20255;-80
2023/04/19 11:54:24;;;;;;;2.10;1.90;;;;;;;11.81;24.12;101326.31;20699845;28;20226;-81
2023/04/19 12:04:27;;;;;;;4.77;2.40;;;;;;;11.50;23.87;101319.88;20751327;28;20229;-83
2023/04/19 12:14:30;;;;;;;3.28;2.45;;;;;;;10.79;24.07;101325.34;20757448;28;20217;-82
2023/04/19 12:24:32;;;;;;;6.53;2.20;;;;;;;11.72;24.60;101285.03;20729563;28;20700;-82
2023/04/19 12:34:34;;;;;;;7.18;2.40;;;;;;;11.89;24.70;101290.75;20742613;28;20263;-82
2023/04/19 12:44:36;;;;;;;3.80;2.28;;;;;;;11.86;24.55;101277.25;20733264;28;20224;-83
2023/04/19 12:54:38;;;;;;;2.75;2.25;;;;;;;12.71;23.85;101270.03;20729297;28;20621;-83
2023/04/19 13:04:40;;;;;;;4.55;2.08;;;;;;;12.26;22.19;101256.22;20757966;28;20264;-83
2023/04/19 13:14:45;;;;;;;2.10;1.60;;;;;;;12.75;21.30;101226.56;20739649;28;20221;-81
2023/04/19 13:24:47;;;;;;;6.90;2.08;;;;;;;12.94;21.16;101216.84;20758081;28;20263;-81
2023/04/19 13:34:49;;;;;;;5.00;1.83;;;;;;;13.03;21.97;101212.84;20745973;28;20637;-80
2023/04/19 13:44:51;;;;;;;2.72;1.70;;;;;;;12.63;22.03;101195.25;20723816;28;20260;-81
2023/04/19 13:54:53;;;;;;;5.93;1.80;;;;;;;12.27;21.63;101189.13;20723126;28;20247;-82
2023/04/19 14:04:57;;;;;;;4.10;1.50;;;;;;;12.79;22.37;101170.06;20730071;28;20267;-82
2023/04/19 14:15:00;;;;;;;2.42;1.42;;;;;;;12.28;21.86;101166.13;20717228;28;20225;-82
2023/04/19 14:25:02;;;;;;;3.30;1.48;;;;;;;12.92;21.10;101146.34;20750990;28;20213;-82
2023/04/19 14:35:07;;;;;;;6.97;1.90;;;;;;;11.93;22.31;101130.47;20749331;28;20225;-80
2023/04/19 14:45:09;;;;;;;4.55;1.25;;;;;;;12.32;21.42;101144.47;20708402;28;20276;-85
2023/04/19 14:55:11;;;;;;;1.80;1.00;;;;;;;12.13;21.09;101131.81;20703641;28;20221;-81
2023/04/19 15:05:14;;;;;;;4.97;1.77;;;;;;;11.81;21.55;101125.47;20735339;28;20220;-80
2023/04/19 15:15:17;;;;;;;3.60;1.20;;;;;;;12.53;21.89;101102.13;20724542;28;20252;-82
2023/04/19 15:25:19;;;;;;;1.77;1.00;;;;;;;12.13;20.64;101090.19;20718173;28;20629;-80
2023/04/19 15:35:21;;;;;;;2.38;0.88;;;;;;;12.05;20.65;101082.50;20716649;28;20213;-80
2023/04/19 15:45:23;;;;;;;3.95;1.02;;;;;;;12.44;20.21;101086.31;20734208;28;20622;-83
2023/04/19 15:55:25;;;;;;;3.00;1.40;;;;;;;11.77;20.08;101081.22;20722218;28;20626;-81
2023/04/19 16:05:28;;;;;;;3.42;0.90;;;;;;;11.88;20.83;101082.53;20746411;28;20289;-81
2023/04/19 16:15:30;;;;;;;2.17;0.88;;;;;;;11.65;20.47;101085.50;20748221;28;20756;-82
2023/04/19 16:25:33;;;;;;;3.67;1.38;;;;;;;11.98;20.21;101076.53;20710091;28;20239;-79
2023/04/19 16:35:35;;;;;;;2.05;1.02;;;;;;;12.19;20.27;101071.88;20746730;28;20240;-81
2023/04/19 16:45:37;;;;;;;9.40;1.33;;;;;;;11.27;20.82;101073.94;20725456;28;20590;-82
2023/04/19 16:55:39;;;;;;;4.70;1.02;;;;;;;11.40;20.83;101069.34;20729233;28;20217;-81
2023/04/19 17:05:41;;;;;;;2.83;1.43;;;;;;;10.96;22.44;101074.06;20738256;28;20271;-82
2023/04/19 17:15:43;;;;;;;6.60;1.60;;;;;;;10.76;23.07;101074.63;20721642;28;20642;-81
2023/04/19 17:25:46;;;;;;;5.38;1.65;;;;;;;11.38;21.60;101074.53;20728276;28;20645;-80
2023/04/19 17:35:48;;;;;;;3.50;1.60;;;;;;;10.69;22.86;101084.72;20746746;28;20216;-80
2023/04/19 17:45:50;;;;;;;2.17;1.63;;;;;;;10.39;23.47;101080.72;20735888;28;20200;-80
2023/04/19 17:55:52;;;;;;;5.63;2.20;;;;;;;9.94;22.99;101094.88;20709852;28;20217;-79
2023/04/19 18:05:55;;;;;;;3.38;2.15;;;;;;;9.72;23.92;101089.19;20737102;28;20220;-80
2023/04/19 18:15:58;;;;;;;2.10;1.60;;;;;;;10.04;23.83;101088.97;20717933;28;20212;-79
2023/04/19 18:26:01;;;;;;;3.65;2.00;;;;;;;10.06;25.38;101099.94;20731133;28;20225;-81
2023/04/19 18:36:04;;;;;;;2.50;2.20;;;;;;;9.91;24.96;101104.78;20717586;28;20271;-80
2023/04/19 18:46:06;;;;;;;4.25;2.17;;;;;;;9.86;25.08;101109.72;20729735;28;20610;-80
2023/04/19 18:56:08;;;;;;;3.17;1.80;;;;;;;10.25;24.57;101121.13;20717284;28;20209;-81
2023/04/19 19:06:11;;;;;;;4.03;2.28;;;;;;;9.71;25.53;101124.16;20737180;28;20283;-78
2023/04/19 19:16:14;;;;;;;8.05;2.00;;;;;;;9.69;26.53;101124.50;20737438;28;20263;-81
2023/04/19 19:26:21;;;;;;;3.17;2.10;;;;;;;9.16;26.54;101138.31;20727961;28;20681;-83
2023/04/19 19:36:23;;;;;;;6.00;2.13;;;;;;;9.25;28.25;101130.81;20694090;28;20209;-80
2023/04/19 19:46:25;;;;;;;3.50;2.40;;;;;;;8.92;28.93;101140.47;20703968;28;20205;-80
2023/04/19 19:56:31;;;;;;;3.60;1.80;;;;;;;8.93;29.48;101142.16;20706301;28;20617;-80
2023/04/19 20:06:36;;;;;;;3.83;2.20;;;;;;;8.56;29.05;101152.41;20716885;28;20248;-81
2023/04/19 20:16:59;;;;;;;3.90;2.03;;;;;;;8.67;29.09;101156.72;20751442;28;20224;-81
2023/04/19 20:27:02;;;;;;;8.87;2.37;;;;;;;7.86;30.09;101160.88;20739237;28;20244;-80
2023/04/19 20:37:05;;;;;;;2.05;1.48;;;;;;;8.32;29.48;101158.16;20735353;28;20621;-80
2023/04/19 20:47:07;;;;;;;4.00;1.83;;;;;;;8.01;30.06;101149.38;20749882;28;20553;-81
2023/04/19 20:57:09;;;;;;;2.45;2.22;;;;;;;7.31;31.00;101149.25;20746486;28;20617;-82
2023/04/19 21:07:12;;;;;;;4.73;1.90;;;;;;;7.50;30.64;101134.38;20761628;28;20221;-80
2023/04/19 21:17:14;;;;;;;3.50;2.33;;;;;;;7.69;30.24;101133.31;20745368;28;20684;-83
2023/04/19 21:27:16;;;;;;;3.90;2.13;;;;;;;7.51;29.31;101131.28;20739959;28;20286;-81
2023/04/19 21:37:19;;;;;;;5.37;2.13;;;;;;;7.65;29.58;101125.75;20758622;28;20225;-81
2023/04/19 21:47:21;;;;;;;5.10;1.97;;;;;;;7.28;29.21;101107.72;20745828;28;20205;-83
2023/04/19 21:57:25;;;;;;;2.33;1.80;;;;;;;7.76;29.49;101104.78;20731942;28;20213;-81
2023/04/19 22:07:30;;;;;;;5.10;3.67;;;;;;;6.96;28.86;101107.59;20738534;28;20642;-81
2023/04/19 22:17:32;;;;;;;2.47;1.53;;;;;;;7.43;28.27;101089.81;20756814;28;20622;-80
2023/04/19 22:27:35;;;;;;;2.63;1.90;;;;;;;6.49;29.23;101083.94;20738936;28;20213;-81
2023/04/19 22:37:37;;;;;;;2.83;1.60;;;;;;;6.81;28.56;101080.53;20720342;28;20712;-80
2023/04/19 22:47:39;;;;;;;1.60;1.50;;;;;;;6.70;28.71;101082.63;20739501;28;20193;-80
2023/04/19 22:57:41;;;;;;;2.47;2.27;;;;;;;6.82;29.12;101072.94;20755249;28;20217;-80
2023/04/19 23:07:44;;;;;;;5.00;2.20;;;;;;;6.58;29.39;101059.72;20737118;28;20816;-81
2023/04/19 23:17:46;;;;;;;2.23;1.73;;;;;;;7.27;28.55;101052.69;20734829;28;20506;-82
2023/04/19 23:27:49;;;;;;;3.93;1.70;;;;;;;7.19;28.61;101039.31;20751606;28;20190;-81
2023/04/19 23:37:51;;;;;;;5.33;1.80;;;;;;;6.91;29.63;101020.63;20720226;28;20695;-82
2023/04/19 23:47:53;;;;;;;6.83;2.00;;;;;;;6.67;28.26;101009.44;20762910;28;20197;-79
2023/04/19 23:57:55;;;;;;;3.50;2.00;;;;;;;6.58;30.02;100989.59;20751535;28;20561;-81
